sensor_id;sensor_type;location;lat;lon;timestamp;P1;durP1;ratioP1;P2;durP2;ratioP2
30147;SDS011;16960;49.404;8.248;2023-04-16T00:01:54;1.10;;;1.00;;
30147;SDS011;16960;49.404;8.248;2023-04-16T00:04:21;0.97;;;0.93;;
30147;SDS011;16960;49.404;8.248;2023-04-16T00:06:48;0.60;;;0.60;;
30147;SDS011;16960;49.404;8.248;2023-04-16T00:09:15;0.80;;;0.80;;
30147;SDS011;16960;49.404;8.248;2023-04-16T00:11:42;1.00;;;0.90;;
30147;SDS011;16960;49.404;8.248;2023-04-16T00:14:10;1.43;;;1.00;;
30147;SDS011;16960;49.404;8.248;2023-04-16T00:16:37;0.90;;;0.90;;
30147;SDS011;16960;49.404;8.248;2023-04-16T00:19:04;0.90;;;0.90;;
30147;SDS011;16960;49.404;8.248;2023-04-16T00:21:31;0.70;;;0.70;;
30147;SDS011;16960;49.404;8.248;2023-04-16T00:23:58;1.80;;;1.30;;
30147;SDS011;16960;49.404;8.248;2023-04-16T00:26:25;1.23;;;0.80;;
30147;SDS011;16960;49.404;8.248;2023-04-16T00:28:52;1.53;;;1.07;;
30147;SDS011;16960;49.404;8.248;2023-04-16T00:31:26;1.30;;;1.20;;
30147;SDS011;16960;49.404;8.248;2023-04-16T00:33:53;0.80;;;0.80;;
30147;SDS011;16960;49.404;8.248;2023-04-16T00:36:21;1.10;;;1.00;;
30147;SDS011;16960;49.404;8.248;2023-04-16T00:38:48;1.30;;;1.20;;
30147;SDS011;16960;49.404;8.248;2023-04-16T00:41:15;1.10;;;1.00;;
30147;SDS011;16960;49.404;8.248;2023-04-16T00:43:42;0.70;;;0.70;;
30147;SDS011;16960;49.404;8.248;2023-04-16T00:46:09;0.97;;;0.93;;
30147;SDS011;16960;49.404;8.248;2023-04-16T00:48:38;2.03;;;1.03;;
30147;SDS011;16960;49.404;8.248;2023-04-16T00:51:07;1.27;;;0.97;;
30147;SDS011;16960;49.404;8.248;2023-04-16T00:53:34;1.20;;;1.10;;
30147;SDS011;16960;49.404;8.248;2023-04-16T00:56:01;1.30;;;1.20;;
30147;SDS011;16960;49.404;8.248;2023-04-16T00:58:30;1.27;;;1.17;;
30147;SDS011;16960;49.404;8.248;2023-04-16T01:00:57;1.30;;;1.17;;
30147;SDS011;16960;49.404;8.248;2023-04-16T01:03:25;1.10;;;1.00;;
30147;SDS011;16960;49.404;8.248;2023-04-16T01:06:04;1.00;;;1.00;;
30147;SDS011;16960;49.404;8.248;2023-04-16T01:08:32;1.23;;;1.13;;
30147;SDS011;16960;49.404;8.248;2023-04-16T01:10:58;1.40;;;1.30;;
30147;SDS011;16960;49.404;8.248;2023-04-16T01:13:25;1.40;;;1.10;;
30147;SDS011;16960;49.404;8.248;2023-04-16T01:15:52;0.90;;;0.90;;
30147;SDS011;16960;49.404;8.248;2023-04-16T01:18:20;0.83;;;0.80;;
30147;SDS011;16960;49.404;8.248;2023-04-16T01:20:48;0.80;;;0.80;;
30147;SDS011;16960;49.404;8.248;2023-04-16T01:23:16;1.33;;;1.23;;
30147;SDS011;16960;49.404;8.248;2023-04-16T01:25:43;1.00;;;1.00;;
30147;SDS011;16960;49.404;8.248;2023-04-16T01:28:10;1.00;;;1.00;;
30147;SDS011;16960;49.404;8.248;2023-04-16T01:30:37;1.20;;;1.10;;
30147;SDS011;16960;49.404;8.248;2023-04-16T01:33:04;1.10;;;1.00;;
30147;SDS011;16960;49.404;8.248;2023-04-16T01:35:32;0.80;;;0.80;;
30147;SDS011;16960;49.404;8.248;2023-04-16T01:38:00;1.13;;;1.03;;
30147;SDS011;16960;49.404;8.248;2023-04-16T01:40:27;1.10;;;1.00;;
30147;SDS011;16960;49.404;8.248;2023-04-16T01:42:54;1.30;;;1.20;;
30147;SDS011;16960;49.404;8.248;2023-04-16T01:45:21;0.97;;;0.97;;
30147;SDS011;16960;49.404;8.248;2023-04-16T01:47:48;1.57;;;1.20;;
30147;SDS011;16960;49.404;8.248;2023-04-16T01:50:16;1.27;;;1.17;;
30147;SDS011;16960;49.404;8.248;2023-04-16T01:52:43;1.17;;;1.07;;
30147;SDS011;16960;49.404;8.248;2023-04-16T01:55:11;1.47;;;1.20;;
30147;SDS011;16960;49.404;8.248;2023-04-16T01:57:38;0.90;;;0.90;;
30147;SDS011;16960;49.404;8.248;2023-04-16T02:00:06;1.30;;;1.20;;
30147;SDS011;16960;49.404;8.248;2023-04-16T02:02:33;1.40;;;1.30;;
30147;SDS011;16960;49.404;8.248;2023-04-16T02:05:01;1.07;;;1.03;;
30147;SDS011;16960;49.404;8.248;2023-04-16T02:07:28;1.50;;;1.30;;
30147;SDS011;16960;49.404;8.248;2023-04-16T02:09:56;1.00;;;1.00;;
30147;SDS011;16960;49.404;8.248;2023-04-16T02:12:25;1.47;;;1.37;;
30147;SDS011;16960;49.404;8.248;2023-04-16T02:14:52;1.00;;;1.00;;
30147;SDS011;16960;49.404;8.248;2023-04-16T02:17:19;1.30;;;1.20;;
30147;SDS011;16960;49.404;8.248;2023-04-16T02:19:46;1.40;;;1.30;;
30147;SDS011;16960;49.404;8.248;2023-04-16T02:22:13;1.57;;;1.43;;
30147;SDS011;16960;49.404;8.248;2023-04-16T02:24:40;1.53;;;1.43;;
30147;SDS011;16960;49.404;8.248;2023-04-16T02:27:07;1.10;;;1.00;;
30147;SDS011;16960;49.404;8.248;2023-04-16T02:29:35;1.27;;;1.17;;
30147;SDS011;16960;49.404;8.248;2023-04-16T02:32:02;1.40;;;1.30;;
30147;SDS011;16960;49.404;8.248;2023-04-16T02:34:29;0.90;;;0.90;;
30147;SDS011;16960;49.404;8.248;2023-04-16T02:36:57;1.30;;;1.20;;
30147;SDS011;16960;49.404;8.248;2023-04-16T02:39:24;1.27;;;1.17;;
30147;SDS011;16960;49.404;8.248;2023-04-16T02:41:51;1.37;;;1.27;;
30147;SDS011;16960;49.404;8.248;2023-04-16T02:44:18;1.20;;;1.10;;
30147;SDS011;16960;49.404;8.248;2023-04-16T02:46:46;1.30;;;1.20;;
30147;SDS011;16960;49.404;8.248;2023-04-16T02:49:13;1.50;;;1.40;;
30147;SDS011;16960;49.404;8.248;2023-04-16T02:51:40;1.40;;;1.30;;
30147;SDS011;16960;49.404;8.248;2023-04-16T02:54:07;1.17;;;1.10;;
30147;SDS011;16960;49.404;8.248;2023-04-16T02:56:34;1.03;;;1.03;;
30147;SDS011;16960;49.404;8.248;2023-04-16T02:59:01;1.37;;;1.27;;
30147;SDS011;16960;49.404;8.248;2023-04-16T03:01:28;1.50;;;1.40;;
30147;SDS011;16960;49.404;8.248;2023-04-16T03:03:56;1.23;;;1.13;;
30147;SDS011;16960;49.404;8.248;2023-04-16T03:06:23;1.73;;;1.63;;
30147;SDS011;16960;49.404;8.248;2023-04-16T03:08:50;1.17;;;1.10;;
30147;SDS011;16960;49.404;8.248;2023-04-16T03:11:17;1.20;;;1.10;;
30147;SDS011;16960;49.404;8.248;2023-04-16T03:13:44;1.50;;;1.40;;
30147;SDS011;16960;49.404;8.248;2023-04-16T03:16:11;1.60;;;1.50;;
30147;SDS011;16960;49.404;8.248;2023-04-16T03:18:38;1.20;;;1.10;;
30147;SDS011;16960;49.404;8.248;2023-04-16T03:21:06;1.10;;;1.10;;
30147;SDS011;16960;49.404;8.248;2023-04-16T03:23:33;1.40;;;1.30;;
30147;SDS011;16960;49.404;8.248;2023-04-16T03:26:00;3.33;;;1.60;;
30147;SDS011;16960;49.404;8.248;2023-04-16T03:28:27;1.40;;;1.30;;
30147;SDS011;16960;49.404;8.248;2023-04-16T03:30:54;1.40;;;1.30;;
30147;SDS011;16960;49.404;8.248;2023-04-16T03:33:21;1.37;;;1.27;;
30147;SDS011;16960;49.404;8.248;2023-04-16T03:35:53;1.27;;;1.17;;
30147;SDS011;16960;49.404;8.248;2023-04-16T03:38:23;1.60;;;1.50;;
30147;SDS011;16960;49.404;8.248;2023-04-16T03:40:50;1.70;;;1.60;;
30147;SDS011;16960;49.404;8.248;2023-04-16T03:43:17;1.50;;;1.40;;
30147;SDS011;16960;49.404;8.248;2023-04-16T03:45:44;1.10;;;1.10;;
30147;SDS011;16960;49.404;8.248;2023-04-16T03:48:11;1.40;;;1.30;;
30147;SDS011;16960;49.404;8.248;2023-04-16T03:50:38;1.50;;;1.40;;
30147;SDS011;16960;49.404;8.248;2023-04-16T03:53:05;1.40;;;1.30;;
30147;SDS011;16960;49.404;8.248;2023-04-16T03:55:34;1.60;;;1.50;;
30147;SDS011;16960;49.404;8.248;2023-04-16T03:58:01;1.70;;;1.60;;
30147;SDS011;16960;49.404;8.248;2023-04-16T04:00:29;1.50;;;1.40;;
30147;SDS011;16960;49.404;8.248;2023-04-16T04:02:56;1.60;;;1.50;;
30147;SDS011;16960;49.404;8.248;2023-04-16T04:05:23;1.97;;;1.87;;
30147;SDS011;16960;49.404;8.248;2023-04-16T04:07:50;1.63;;;1.53;;
30147;SDS011;16960;49.404;8.248;2023-04-16T04:10:17;1.70;;;1.60;;
30147;SDS011;16960;49.404;8.248;2023-04-16T04:12:45;1.53;;;1.43;;
30147;SDS011;16960;49.404;8.248;2023-04-16T04:15:12;1.73;;;1.63;;
30147;SDS011;16960;49.404;8.248;2023-04-16T04:17:39;1.53;;;1.43;;
30147;SDS011;16960;49.404;8.248;2023-04-16T04:20:06;1.33;;;1.23;;
30147;SDS011;16960;49.404;8.248;2023-04-16T04:22:33;1.50;;;1.40;;
30147;SDS011;16960;49.404;8.248;2023-04-16T04:25:00;1.50;;;1.40;;
30147;SDS011;16960;49.404;8.248;2023-04-16T04:27:27;1.67;;;1.57;;
30147;SDS011;16960;49.404;8.248;2023-04-16T04:29:56;1.90;;;1.80;;
30147;SDS011;16960;49.404;8.248;2023-04-16T04:32:23;1.90;;;1.80;;
30147;SDS011;16960;49.404;8.248;2023-04-16T04:34:50;1.83;;;1.73;;
30147;SDS011;16960;49.404;8.248;2023-04-16T04:37:17;1.60;;;1.50;;
30147;SDS011;16960;49.404;8.248;2023-04-16T04:39:44;1.80;;;1.63;;
30147;SDS011;16960;49.404;8.248;2023-04-16T04:42:11;1.70;;;1.60;;
30147;SDS011;16960;49.404;8.248;2023-04-16T04:44:38;1.70;;;1.60;;
30147;SDS011;16960;49.404;8.248;2023-04-16T04:47:06;1.33;;;1.23;;
30147;SDS011;16960;49.404;8.248;2023-04-16T04:49:33;1.60;;;1.40;;
30147;SDS011;16960;49.404;8.248;2023-04-16T04:52:00;1.13;;;1.13;;
30147;SDS011;16960;49.404;8.248;2023-04-16T04:54:27;3.00;;;1.77;;
30147;SDS011;16960;49.404;8.248;2023-04-16T04:56:55;1.70;;;1.60;;
30147;SDS011;16960;49.404;8.248;2023-04-16T04:59:23;1.87;;;1.77;;
30147;SDS011;16960;49.404;8.248;2023-04-16T05:01:50;1.60;;;1.50;;
30147;SDS011;16960;49.404;8.248;2023-04-16T05:04:18;1.63;;;1.53;;
30147;SDS011;16960;49.404;8.248;2023-04-16T05:06:45;1.80;;;1.70;;
30147;SDS011;16960;49.404;8.248;2023-04-16T05:09:12;1.70;;;1.60;;
30147;SDS011;16960;49.404;8.248;2023-04-16T05:11:39;2.00;;;1.90;;
30147;SDS011;16960;49.404;8.248;2023-04-16T05:14:07;2.47;;;2.27;;
30147;SDS011;16960;49.404;8.248;2023-04-16T05:16:34;1.50;;;1.40;;
30147;SDS011;16960;49.404;8.248;2023-04-16T05:19:02;1.57;;;1.47;;
30147;SDS011;16960;49.404;8.248;2023-04-16T05:21:30;2.00;;;1.90;;
30147;SDS011;16960;49.404;8.248;2023-04-16T05:23:57;1.33;;;1.23;;
30147;SDS011;16960;49.404;8.248;2023-04-16T05:26:24;1.63;;;1.53;;
30147;SDS011;16960;49.404;8.248;2023-04-16T05:28:51;1.50;;;1.40;;
30147;SDS011;16960;49.404;8.248;2023-04-16T05:31:18;1.60;;;1.50;;
30147;SDS011;16960;49.404;8.248;2023-04-16T05:33:45;1.50;;;1.40;;
30147;SDS011;16960;49.404;8.248;2023-04-16T05:36:12;1.80;;;1.30;;
30147;SDS011;16960;49.404;8.248;2023-04-16T05:38:40;2.67;;;1.67;;
30147;SDS011;16960;49.404;8.248;2023-04-16T05:41:07;1.60;;;1.50;;
30147;SDS011;16960;49.404;8.248;2023-04-16T05:43:34;2.20;;;1.83;;
30147;SDS011;16960;49.404;8.248;2023-04-16T05:46:01;1.77;;;1.67;;
30147;SDS011;16960;49.404;8.248;2023-04-16T05:48:28;1.70;;;1.60;;
30147;SDS011;16960;49.404;8.248;2023-04-16T05:50:55;1.73;;;1.47;;
30147;SDS011;16960;49.404;8.248;2023-04-16T05:53:22;1.80;;;1.70;;
30147;SDS011;16960;49.404;8.248;2023-04-16T05:55:50;1.77;;;1.67;;
30147;SDS011;16960;49.404;8.248;2023-04-16T05:58:17;1.70;;;1.60;;
30147;SDS011;16960;49.404;8.248;2023-04-16T06:00:44;1.63;;;1.53;;
30147;SDS011;16960;49.404;8.248;2023-04-16T06:03:11;1.63;;;1.53;;
30147;SDS011;16960;49.404;8.248;2023-04-16T06:05:38;1.77;;;1.67;;
30147;SDS011;16960;49.404;8.248;2023-04-16T06:08:05;1.40;;;1.30;;
30147;SDS011;16960;49.404;8.248;2023-04-16T06:10:32;1.80;;;1.53;;
30147;SDS011;16960;49.404;8.248;2023-04-16T06:13:00;2.90;;;1.40;;
30147;SDS011;16960;49.404;8.248;2023-04-16T06:15:27;1.53;;;1.43;;
30147;SDS011;16960;49.404;8.248;2023-04-16T06:17:54;2.17;;;1.97;;
30147;SDS011;16960;49.404;8.248;2023-04-16T06:20:21;1.83;;;1.70;;
30147;SDS011;16960;49.404;8.248;2023-04-16T06:22:48;2.60;;;2.40;;
30147;SDS011;16960;49.404;8.248;2023-04-16T06:25:15;1.57;;;1.47;;
30147;SDS011;16960;49.404;8.248;2023-04-16T06:27:42;1.67;;;1.57;;
30147;SDS011;16960;49.404;8.248;2023-04-16T06:30:12;1.63;;;1.53;;
30147;SDS011;16960;49.404;8.248;2023-04-16T06:32:41;1.80;;;1.70;;
30147;SDS011;16960;49.404;8.248;2023-04-16T06:35:08;2.30;;;1.97;;
30147;SDS011;16960;49.404;8.248;2023-04-16T06:37:35;1.87;;;1.77;;
30147;SDS011;16960;49.404;8.248;2023-04-16T06:40:02;1.67;;;1.57;;
30147;SDS011;16960;49.404;8.248;2023-04-16T06:42:30;1.57;;;1.47;;
30147;SDS011;16960;49.404;8.248;2023-04-16T06:44:57;2.20;;;2.00;;
30147;SDS011;16960;49.404;8.248;2023-04-16T06:47:25;3.60;;;1.67;;
30147;SDS011;16960;49.404;8.248;2023-04-16T06:49:52;1.80;;;1.70;;
30147;SDS011;16960;49.404;8.248;2023-04-16T06:52:19;3.60;;;2.00;;
30147;SDS011;16960;49.404;8.248;2023-04-16T06:54:46;2.33;;;2.13;;
30147;SDS011;16960;49.404;8.248;2023-04-16T06:57:13;1.70;;;1.60;;
30147;SDS011;16960;49.404;8.248;2023-04-16T06:59:40;3.40;;;2.10;;
30147;SDS011;16960;49.404;8.248;2023-04-16T07:02:08;3.43;;;1.93;;
30147;SDS011;16960;49.404;8.248;2023-04-16T07:04:36;1.90;;;1.70;;
30147;SDS011;16960;49.404;8.248;2023-04-16T07:07:03;2.83;;;1.90;;
30147;SDS011;16960;49.404;8.248;2023-04-16T07:09:30;1.63;;;1.53;;
30147;SDS011;16960;49.404;8.248;2023-04-16T07:11:57;2.60;;;1.80;;
30147;SDS011;16960;49.404;8.248;2023-04-16T07:14:24;3.77;;;1.80;;
30147;SDS011;16960;49.404;8.248;2023-04-16T07:16:51;1.80;;;1.70;;
30147;SDS011;16960;49.404;8.248;2023-04-16T07:19:18;2.43;;;2.20;;
30147;SDS011;16960;49.404;8.248;2023-04-16T07:21:46;1.70;;;1.60;;
30147;SDS011;16960;49.404;8.248;2023-04-16T07:24:13;2.03;;;1.83;;
30147;SDS011;16960;49.404;8.248;2023-04-16T07:26:41;1.40;;;1.30;;
30147;SDS011;16960;49.404;8.248;2023-04-16T07:29:08;1.77;;;1.67;;
30147;SDS011;16960;49.404;8.248;2023-04-16T07:31:34;1.57;;;1.47;;
30147;SDS011;16960;49.404;8.248;2023-04-16T07:34:02;1.97;;;1.83;;
30147;SDS011;16960;49.404;8.248;2023-04-16T07:36:29;2.50;;;2.10;;
30147;SDS011;16960;49.404;8.248;2023-04-16T07:38:57;1.67;;;1.57;;
30147;SDS011;16960;49.404;8.248;2023-04-16T07:41:24;1.77;;;1.67;;
30147;SDS011;16960;49.404;8.248;2023-04-16T07:43:51;2.47;;;2.00;;
30147;SDS011;16960;49.404;8.248;2023-04-16T07:46:18;2.30;;;2.10;;
30147;SDS011;16960;49.404;8.248;2023-04-16T07:48:45;2.40;;;2.20;;
30147;SDS011;16960;49.404;8.248;2023-04-16T07:51:12;1.80;;;1.70;;
30147;SDS011;16960;49.404;8.248;2023-04-16T07:53:39;2.30;;;1.90;;
30147;SDS011;16960;49.404;8.248;2023-04-16T07:56:08;2.13;;;1.97;;
30147;SDS011;16960;49.404;8.248;2023-04-16T07:58:35;2.20;;;2.00;;
30147;SDS011;16960;49.404;8.248;2023-04-16T08:01:02;2.33;;;2.00;;
30147;SDS011;16960;49.404;8.248;2023-04-16T08:03:29;2.40;;;2.20;;
30147;SDS011;16960;49.404;8.248;2023-04-16T08:05:57;2.20;;;2.00;;
30147;SDS011;16960;49.404;8.248;2023-04-16T08:08:24;2.20;;;2.10;;
30147;SDS011;16960;49.404;8.248;2023-04-16T08:10:51;1.80;;;1.70;;
30147;SDS011;16960;49.404;8.248;2023-04-16T08:13:21;5.10;;;2.00;;
30147;SDS011;16960;49.404;8.248;2023-04-16T08:15:48;1.87;;;1.77;;
30147;SDS011;16960;49.404;8.248;2023-04-16T08:18:15;1.60;;;1.50;;
30147;SDS011;16960;49.404;8.248;2023-04-16T08:20:42;2.00;;;1.83;;
30147;SDS011;16960;49.404;8.248;2023-04-16T08:23:09;2.27;;;2.03;;
30147;SDS011;16960;49.404;8.248;2023-04-16T08:25:36;2.77;;;2.53;;
30147;SDS011;16960;49.404;8.248;2023-04-16T08:28:03;2.73;;;2.40;;
30147;SDS011;16960;49.404;8.248;2023-04-16T08:30:32;4.73;;;2.50;;
30147;SDS011;16960;49.404;8.248;2023-04-16T08:32:59;2.50;;;2.30;;
30147;SDS011;16960;49.404;8.248;2023-04-16T08:35:26;2.63;;;2.30;;
30147;SDS011;16960;49.404;8.248;2023-04-16T08:37:53;2.40;;;2.20;;
30147;SDS011;16960;49.404;8.248;2023-04-16T08:40:22;2.33;;;2.13;;
30147;SDS011;16960;49.404;8.248;2023-04-16T08:42:52;3.27;;;2.97;;
30147;SDS011;16960;49.404;8.248;2023-04-16T08:45:20;3.07;;;2.77;;
30147;SDS011;16960;49.404;8.248;2023-04-16T08:47:48;2.60;;;2.40;;
30147;SDS011;16960;49.404;8.248;2023-04-16T08:50:16;3.50;;;2.90;;
30147;SDS011;16960;49.404;8.248;2023-04-16T08:52:49;4.10;;;2.87;;
30147;SDS011;16960;49.404;8.248;2023-04-16T08:55:17;3.10;;;2.80;;
30147;SDS011;16960;49.404;8.248;2023-04-16T08:57:47;3.73;;;3.43;;
30147;SDS011;16960;49.404;8.248;2023-04-16T09:00:17;2.80;;;2.57;;
30147;SDS011;16960;49.404;8.248;2023-04-16T09:02:45;5.00;;;2.63;;
30147;SDS011;16960;49.404;8.248;2023-04-16T09:05:14;3.37;;;2.73;;
30147;SDS011;16960;49.404;8.248;2023-04-16T09:07:43;5.73;;;3.47;;
30147;SDS011;16960;49.404;8.248;2023-04-16T09:10:10;3.43;;;2.90;;
30147;SDS011;16960;49.404;8.248;2023-04-16T09:12:38;2.63;;;2.43;;
30147;SDS011;16960;49.404;8.248;2023-04-16T09:15:07;3.20;;;2.90;;
30147;SDS011;16960;49.404;8.248;2023-04-16T09:17:36;3.40;;;2.73;;
30147;SDS011;16960;49.404;8.248;2023-04-16T09:20:03;3.53;;;2.93;;
30147;SDS011;16960;49.404;8.248;2023-04-16T09:22:34;3.50;;;3.20;;
30147;SDS011;16960;49.404;8.248;2023-04-16T09:25:01;3.83;;;2.80;;
30147;SDS011;16960;49.404;8.248;2023-04-16T09:27:29;3.00;;;2.80;;
30147;SDS011;16960;49.404;8.248;2023-04-16T09:29:56;3.00;;;2.73;;
30147;SDS011;16960;49.404;8.248;2023-04-16T09:32:24;2.80;;;2.60;;
30147;SDS011;16960;49.404;8.248;2023-04-16T09:34:52;4.27;;;3.30;;
30147;SDS011;16960;49.404;8.248;2023-04-16T09:37:21;3.30;;;3.00;;
30147;SDS011;16960;49.404;8.248;2023-04-16T09:39:54;3.60;;;3.30;;
30147;SDS011;16960;49.404;8.248;2023-04-16T09:42:23;3.20;;;2.90;;
30147;SDS011;16960;49.404;8.248;2023-04-16T09:44:51;4.50;;;3.93;;
30147;SDS011;16960;49.404;8.248;2023-04-16T09:47:18;3.93;;;3.53;;
30147;SDS011;16960;49.404;8.248;2023-04-16T09:49:46;4.03;;;3.30;;
30147;SDS011;16960;49.404;8.248;2023-04-16T09:52:13;3.40;;;3.10;;
30147;SDS011;16960;49.404;8.248;2023-04-16T09:54:47;4.13;;;3.37;;
30147;SDS011;16960;49.404;8.248;2023-04-16T09:57:20;3.60;;;3.30;;
30147;SDS011;16960;49.404;8.248;2023-04-16T09:59:48;4.57;;;3.10;;
30147;SDS011;16960;49.404;8.248;2023-04-16T10:02:18;3.27;;;3.00;;
30147;SDS011;16960;49.404;8.248;2023-04-16T10:04:47;3.20;;;2.90;;
30147;SDS011;16960;49.404;8.248;2023-04-16T10:07:15;3.40;;;3.10;;
30147;SDS011;16960;49.404;8.248;2023-04-16T10:09:42;3.07;;;2.80;;
30147;SDS011;16960;49.404;8.248;2023-04-16T10:12:10;3.80;;;3.50;;
30147;SDS011;16960;49.404;8.248;2023-04-16T10:14:39;3.63;;;3.33;;
30147;SDS011;16960;49.404;8.248;2023-04-16T10:17:07;3.53;;;3.23;;
30147;SDS011;16960;49.404;8.248;2023-04-16T10:19:35;3.70;;;3.40;;
30147;SDS011;16960;49.404;8.248;2023-04-16T10:22:02;3.20;;;2.90;;
30147;SDS011;16960;49.404;8.248;2023-04-16T10:24:29;3.83;;;3.43;;
30147;SDS011;16960;49.404;8.248;2023-04-16T10:26:58;3.80;;;3.50;;
30147;SDS011;16960;49.404;8.248;2023-04-16T10:29:26;3.97;;;3.60;;
30147;SDS011;16960;49.404;8.248;2023-04-16T10:31:56;3.60;;;3.30;;
30147;SDS011;16960;49.404;8.248;2023-04-16T10:34:23;3.47;;;3.17;;
30147;SDS011;16960;49.404;8.248;2023-04-16T10:36:51;4.70;;;3.73;;
30147;SDS011;16960;49.404;8.248;2023-04-16T10:39:20;3.77;;;3.40;;
30147;SDS011;16960;49.404;8.248;2023-04-16T10:41:47;3.57;;;3.10;;
30147;SDS011;16960;49.404;8.248;2023-04-16T10:44:16;3.57;;;3.27;;
30147;SDS011;16960;49.404;8.248;2023-04-16T10:46:45;3.03;;;2.83;;
30147;SDS011;16960;49.404;8.248;2023-04-16T10:49:16;4.10;;;3.80;;
30147;SDS011;16960;49.404;8.248;2023-04-16T10:51:53;3.03;;;2.83;;
30147;SDS011;16960;49.404;8.248;2023-04-16T10:54:22;3.60;;;3.30;;
30147;SDS011;16960;49.404;8.248;2023-04-16T10:56:51;3.80;;;3.40;;
30147;SDS011;16960;49.404;8.248;2023-04-16T10:59:19;3.70;;;3.40;;
30147;SDS011;16960;49.404;8.248;2023-04-16T11:01:47;3.60;;;3.20;;
30147;SDS011;16960;49.404;8.248;2023-04-16T11:04:26;3.87;;;3.57;;
30147;SDS011;16960;49.404;8.248;2023-04-16T11:07:03;3.30;;;3.00;;
30147;SDS011;16960;49.404;8.248;2023-04-16T11:09:43;2.77;;;2.57;;
30147;SDS011;16960;49.404;8.248;2023-04-16T11:12:11;3.60;;;3.30;;
30147;SDS011;16960;49.404;8.248;2023-04-16T11:14:40;2.80;;;2.60;;
30147;SDS011;16960;49.404;8.248;2023-04-16T11:17:07;2.93;;;2.73;;
30147;SDS011;16960;49.404;8.248;2023-04-16T11:19:36;3.50;;;3.20;;
30147;SDS011;16960;49.404;8.248;2023-04-16T11:22:04;3.47;;;3.17;;
30147;SDS011;16960;49.404;8.248;2023-04-16T11:24:31;3.20;;;2.90;;
30147;SDS011;16960;49.404;8.248;2023-04-16T11:26:58;2.73;;;2.53;;
30147;SDS011;16960;49.404;8.248;2023-04-16T11:29:25;4.90;;;3.70;;
30147;SDS011;16960;49.404;8.248;2023-04-16T11:31:53;3.90;;;3.07;;
30147;SDS011;16960;49.404;8.248;2023-04-16T11:34:20;3.07;;;2.77;;
30147;SDS011;16960;49.404;8.248;2023-04-16T11:36:49;3.63;;;3.33;;
30147;SDS011;16960;49.404;8.248;2023-04-16T11:39:17;3.30;;;2.90;;
30147;SDS011;16960;49.404;8.248;2023-04-16T11:41:44;3.77;;;3.33;;
30147;SDS011;16960;49.404;8.248;2023-04-16T11:44:18;3.00;;;2.70;;
30147;SDS011;16960;49.404;8.248;2023-04-16T11:46:46;3.00;;;2.77;;
30147;SDS011;16960;49.404;8.248;2023-04-16T11:49:13;3.20;;;2.90;;
30147;SDS011;16960;49.404;8.248;2023-04-16T11:51:41;3.07;;;2.80;;
30147;SDS011;16960;49.404;8.248;2023-04-16T11:54:12;3.33;;;3.07;;
30147;SDS011;16960;49.404;8.248;2023-04-16T11:56:44;3.00;;;2.70;;
30147;SDS011;16960;49.404;8.248;2023-04-16T11:59:13;2.87;;;2.67;;
30147;SDS011;16960;49.404;8.248;2023-04-16T12:01:41;2.80;;;2.60;;
30147;SDS011;16960;49.404;8.248;2023-04-16T12:04:12;3.30;;;3.00;;
30147;SDS011;16960;49.404;8.248;2023-04-16T12:06:39;3.40;;;3.10;;
30147;SDS011;16960;49.404;8.248;2023-04-16T12:09:23;3.17;;;2.87;;
30147;SDS011;16960;49.404;8.248;2023-04-16T12:11:51;3.67;;;3.37;;
30147;SDS011;16960;49.404;8.248;2023-04-16T12:14:18;4.90;;;4.40;;
30147;SDS011;16960;49.404;8.248;2023-04-16T12:16:45;3.20;;;2.97;;
30147;SDS011;16960;49.404;8.248;2023-04-16T12:19:12;6.33;;;3.03;;
30147;SDS011;16960;49.404;8.248;2023-04-16T12:21:40;3.90;;;3.50;;
30147;SDS011;16960;49.404;8.248;2023-04-16T12:24:09;3.27;;;2.97;;
30147;SDS011;16960;49.404;8.248;2023-04-16T12:26:43;2.93;;;2.73;;
30147;SDS011;16960;49.404;8.248;2023-04-16T12:29:15;3.57;;;3.27;;
30147;SDS011;16960;49.404;8.248;2023-04-16T12:31:44;3.23;;;2.93;;
30147;SDS011;16960;49.404;8.248;2023-04-16T12:34:11;4.60;;;3.50;;
30147;SDS011;16960;49.404;8.248;2023-04-16T12:36:39;3.20;;;2.90;;
30147;SDS011;16960;49.404;8.248;2023-04-16T12:39:06;3.37;;;3.07;;
30147;SDS011;16960;49.404;8.248;2023-04-16T12:41:35;3.37;;;3.17;;
30147;SDS011;16960;49.404;8.248;2023-04-16T12:44:05;3.10;;;2.90;;
30147;SDS011;16960;49.404;8.248;2023-04-16T12:46:36;3.80;;;3.30;;
30147;SDS011;16960;49.404;8.248;2023-04-16T12:49:04;3.17;;;2.90;;
30147;SDS011;16960;49.404;8.248;2023-04-16T12:51:31;3.07;;;2.77;;
30147;SDS011;16960;49.404;8.248;2023-04-16T12:53:59;3.60;;;3.30;;
30147;SDS011;16960;49.404;8.248;2023-04-16T12:56:27;3.70;;;3.40;;
30147;SDS011;16960;49.404;8.248;2023-04-16T12:58:55;4.17;;;3.03;;
30147;SDS011;16960;49.404;8.248;2023-04-16T13:01:23;3.37;;;3.07;;
30147;SDS011;16960;49.404;8.248;2023-04-16T13:03:50;2.90;;;2.70;;
30147;SDS011;16960;49.404;8.248;2023-04-16T13:06:18;3.30;;;3.00;;
30147;SDS011;16960;49.404;8.248;2023-04-16T13:08:45;3.20;;;3.00;;
30147;SDS011;16960;49.404;8.248;2023-04-16T13:11:12;3.87;;;3.27;;
30147;SDS011;16960;49.404;8.248;2023-04-16T13:13:40;3.03;;;2.83;;
30147;SDS011;16960;49.404;8.248;2023-04-16T13:16:07;4.97;;;3.50;;
30147;SDS011;16960;49.404;8.248;2023-04-16T13:18:35;3.27;;;2.97;;
30147;SDS011;16960;49.404;8.248;2023-04-16T13:21:03;2.90;;;2.70;;
30147;SDS011;16960;49.404;8.248;2023-04-16T13:23:30;3.33;;;3.03;;
30147;SDS011;16960;49.404;8.248;2023-04-16T13:25:57;3.43;;;3.13;;
30147;SDS011;16960;49.404;8.248;2023-04-16T13:28:24;3.03;;;2.83;;
30147;SDS011;16960;49.404;8.248;2023-04-16T13:30:51;2.70;;;2.50;;
30147;SDS011;16960;49.404;8.248;2023-04-16T13:33:18;3.50;;;2.80;;
30147;SDS011;16960;49.404;8.248;2023-04-16T13:35:47;3.77;;;3.37;;
30147;SDS011;16960;49.404;8.248;2023-04-16T13:38:14;3.60;;;3.10;;
30147;SDS011;16960;49.404;8.248;2023-04-16T13:40:41;3.77;;;3.47;;
30147;SDS011;16960;49.404;8.248;2023-04-16T13:43:08;4.40;;;3.63;;
30147;SDS011;16960;49.404;8.248;2023-04-16T13:45:36;3.50;;;3.20;;
30147;SDS011;16960;49.404;8.248;2023-04-16T13:48:03;5.37;;;3.07;;
30147;SDS011;16960;49.404;8.248;2023-04-16T13:50:30;3.13;;;2.93;;
30147;SDS011;16960;49.404;8.248;2023-04-16T13:52:58;3.53;;;3.23;;
30147;SDS011;16960;49.404;8.248;2023-04-16T13:55:26;2.87;;;2.67;;
30147;SDS011;16960;49.404;8.248;2023-04-16T13:57:53;3.23;;;2.93;;
30147;SDS011;16960;49.404;8.248;2023-04-16T14:00:20;3.93;;;3.60;;
30147;SDS011;16960;49.404;8.248;2023-04-16T14:02:47;3.63;;;3.33;;
30147;SDS011;16960;49.404;8.248;2023-04-16T14:05:14;3.17;;;2.97;;
30147;SDS011;16960;49.404;8.248;2023-04-16T14:07:41;3.63;;;3.33;;
30147;SDS011;16960;49.404;8.248;2023-04-16T14:10:10;3.70;;;3.40;;
30147;SDS011;16960;49.404;8.248;2023-04-16T14:12:37;3.33;;;3.03;;
30147;SDS011;16960;49.404;8.248;2023-04-16T14:15:04;3.10;;;2.90;;
30147;SDS011;16960;49.404;8.248;2023-04-16T14:17:33;2.90;;;2.70;;
30147;SDS011;16960;49.404;8.248;2023-04-16T14:20:01;3.73;;;3.43;;
30147;SDS011;16960;49.404;8.248;2023-04-16T14:22:29;5.10;;;2.97;;
30147;SDS011;16960;49.404;8.248;2023-04-16T14:24:56;3.67;;;3.37;;
30147;SDS011;16960;49.404;8.248;2023-04-16T14:27:24;3.27;;;2.97;;
30147;SDS011;16960;49.404;8.248;2023-04-16T14:29:51;3.80;;;3.50;;
30147;SDS011;16960;49.404;8.248;2023-04-16T14:32:18;4.70;;;3.70;;
30147;SDS011;16960;49.404;8.248;2023-04-16T14:34:45;3.53;;;3.23;;
30147;SDS011;16960;49.404;8.248;2023-04-16T14:37:13;3.67;;;3.20;;
30147;SDS011;16960;49.404;8.248;2023-04-16T14:39:41;3.50;;;3.20;;
30147;SDS011;16960;49.404;8.248;2023-04-16T14:42:08;3.70;;;3.40;;
30147;SDS011;16960;49.404;8.248;2023-04-16T14:44:36;2.83;;;2.60;;
30147;SDS011;16960;49.404;8.248;2023-04-16T14:47:03;3.27;;;3.07;;
30147;SDS011;16960;49.404;8.248;2023-04-16T14:49:32;3.87;;;3.53;;
30147;SDS011;16960;49.404;8.248;2023-04-16T14:51:59;3.80;;;3.50;;